createdAt,value
2017-12-02T00:01:46.279Z,102086.58
2017-12-02T00:04:14.652Z,102088.33
2017-12-02T00:06:43.021Z,102084.02
2017-12-02T00:09:11.812Z,102083.76
2017-12-02T00:11:40.253Z,102090.34
2017-12-02T00:14:09.416Z,102091.46
2017-12-02T00:16:37.774Z,102097.38
2017-12-02T00:19:06.728Z,102099.64
2017-12-02T00:21:35.924Z,102104.28
2017-12-02T00:24:04.812Z,102100.38
2017-12-02T00:26:33.160Z,102111.31
2017-12-02T00:29:01.722Z,102113.31
2017-12-02T00:31:30.208Z,102113.79
2017-12-02T00:33:58.549Z,102116.84
2017-12-02T00:36:29.776Z,102122.85
2017-12-02T00:38:58.882Z,102121.93
2017-12-02T00:41:28.210Z,102126.34
2017-12-02T00:43:56.551Z,102129.45
2017-12-02T00:46:25.647Z,102135.78
2017-12-02T00:48:54.026Z,102139.16
2017-12-02T00:51:22.341Z,102138.33
2017-12-02T00:53:50.759Z,102145.66
2017-12-02T00:56:19.137Z,102152.00
2017-12-02T00:58:47.516Z,102154.57
2017-12-02T01:01:16.595Z,102157.05
2017-12-02T01:03:45.254Z,102151.14
2017-12-02T01:06:13.595Z,102156.88
2017-12-02T01:08:41.935Z,102154.55
2017-12-02T01:11:10.316Z,102158.91
2017-12-02T01:13:38.644Z,102158.09
2017-12-02T01:16:07.731Z,102157.27
2017-12-02T01:18:36.863Z,102161.47
2017-12-02T01:21:05.212Z,102158.38
2017-12-02T01:23:34.304Z,102157.18
2017-12-02T01:26:02.833Z,102163.50
2017-12-02T01:28:31.162Z,102164.49
2017-12-02T01:30:59.512Z,102163.09
2017-12-02T01:33:27.923Z,102176.69
2017-12-02T01:35:57.014Z,102170.23
2017-12-02T01:38:25.339Z,102172.00
2017-12-02T01:40:53.707Z,102168.45
2017-12-02T01:43:22.046Z,102172.05
2017-12-02T01:45:50.378Z,102175.05
2017-12-02T01:48:18.975Z,102177.58
2017-12-02T01:50:47.290Z,102177.58
2017-12-02T01:53:16.386Z,102173.75
2017-12-02T01:55:44.754Z,102179.64
2017-12-02T01:58:13.073Z,102185.94
2017-12-02T02:00:41.393Z,102182.33
2017-12-02T02:03:09.756Z,102184.31
2017-12-02T02:05:38.086Z,102190.91
2017-12-02T02:08:07.169Z,102193.98
2017-12-02T02:10:35.894Z,102190.30
2017-12-02T02:13:04.245Z,102196.55
2017-12-02T02:15:33.329Z,102195.91
2017-12-02T02:18:01.703Z,102203.91
2017-12-02T02:20:30.068Z,102195.70
2017-12-02T02:22:59.346Z,102195.55
2017-12-02T02:25:27.745Z,102188.67
2017-12-02T02:27:56.074Z,102187.92
2017-12-02T02:30:24.427Z,102199.13
2017-12-02T02:32:54.072Z,102201.03
2017-12-02T02:35:22.413Z,102198.47
2017-12-02T02:37:51.515Z,102198.41
2017-12-02T02:40:20.609Z,102203.57
2017-12-02T02:42:48.997Z,102206.92
2017-12-02T02:45:17.335Z,102208.53
2017-12-02T02:47:45.690Z,102208.98
2017-12-02T02:50:14.002Z,102203.98
2017-12-02T02:52:43.022Z,102211.45
2017-12-02T02:55:12.384Z,102216.70
2017-12-02T02:57:40.707Z,102209.06
2017-12-02T03:00:09.078Z,102216.37
2017-12-02T03:02:38.233Z,102218.95
2017-12-02T03:05:06.591Z,102217.50
2017-12-02T03:07:34.897Z,102217.56
2017-12-02T03:10:03.284Z,102214.69
2017-12-02T03:12:31.572Z,102221.19
2017-12-02T03:14:59.926Z,102224.89
2017-12-02T03:17:28.594Z,102223.91
2017-12-02T03:19:56.944Z,102229.30
2017-12-02T03:22:26.086Z,102227.92
2017-12-02T03:24:54.441Z,102231.63
2017-12-02T03:27:22.759Z,102233.33
2017-12-02T03:29:51.107Z,102232.64
2017-12-02T03:32:19.460Z,102228.77
2017-12-02T03:34:47.774Z,102224.97
2017-12-02T03:37:16.070Z,102227.64
2017-12-02T03:39:45.531Z,102230.58
2017-12-02T03:42:13.849Z,102229.46
2017-12-02T03:44:42.214Z,102228.02
2017-12-02T03:47:10.569Z,102227.19
2017-12-02T03:49:39.403Z,102234.09
2017-12-02T03:52:07.728Z,102230.30
2017-12-02T03:54:36.109Z,102238.07
2017-12-02T03:57:05.205Z,102237.22
2017-12-02T03:59:33.543Z,102227.95
2017-12-02T04:02:02.591Z,102230.01
2017-12-02T04:04:31.016Z,102227.14
2017-12-02T04:06:59.331Z,102234.55
2017-12-02T04:09:28.477Z,102236.23
2017-12-02T04:11:56.803Z,102233.70
2017-12-02T04:14:25.907Z,102233.83
2017-12-02T04:16:54.238Z,102236.13
2017-12-02T04:19:22.554Z,102237.92
2017-12-02T04:21:51.656Z,102240.50
2017-12-02T04:24:21.445Z,102243.03
2017-12-02T04:26:49.772Z,102250.63
2017-12-02T04:29:18.114Z,102247.02
2017-12-02T04:31:47.240Z,102247.75
2017-12-02T04:34:15.531Z,102247.77
2017-12-02T04:36:43.866Z,102249.16
2017-12-02T04:39:12.212Z,102250.23
2017-12-02T04:41:40.548Z,102247.83
2017-12-02T04:44:09.623Z,102248.38
2017-12-02T04:46:39.225Z,102248.99
2017-12-02T04:49:07.551Z,102258.66
2017-12-02T04:51:35.880Z,102258.95
2017-12-02T04:54:04.258Z,102261.64
2017-12-02T04:56:32.572Z,102257.80
2017-12-02T04:59:00.889Z,102262.67
2017-12-02T05:01:29.235Z,102269.09
2017-12-02T05:03:57.609Z,102265.02
2017-12-02T05:06:25.916Z,102269.72
2017-12-02T05:08:54.769Z,102270.25
2017-12-02T05:11:23.087Z,102266.63
2017-12-02T05:13:51.431Z,102269.63
2017-12-02T05:16:19.818Z,102273.32
2017-12-02T05:18:48.156Z,102283.10
2017-12-02T05:21:16.495Z,102286.67
2017-12-02T05:23:44.867Z,102292.66
2017-12-02T05:26:13.190Z,102298.58
2017-12-02T05:28:42.348Z,102299.14
2017-12-02T05:31:11.296Z,102303.45
2017-12-02T05:33:40.390Z,102298.39
2017-12-02T05:36:08.685Z,102307.59
2017-12-02T05:38:37.072Z,102304.53
2017-12-02T05:41:05.387Z,102309.41
2017-12-02T05:43:33.712Z,102318.09
2017-12-02T05:46:02.072Z,102317.18
2017-12-02T05:48:30.434Z,102321.45
2017-12-02T05:50:59.458Z,102328.89
2017-12-02T05:53:29.142Z,102324.86
2017-12-02T05:55:57.854Z,102332.92
2017-12-02T05:58:26.960Z,102328.95
2017-12-02T06:00:55.354Z,102322.59
2017-12-02T06:03:23.689Z,102322.38
2017-12-02T06:05:52.978Z,102329.66
2017-12-02T06:08:21.326Z,102330.73
2017-12-02T06:10:49.653Z,102335.10
2017-12-02T06:13:18.018Z,102346.56
2017-12-02T06:15:46.835Z,102346.91
2017-12-02T06:18:15.180Z,102347.86
2017-12-02T06:20:43.508Z,102341.63
2017-12-02T06:23:11.850Z,102343.57
2017-12-02T06:25:40.139Z,102347.56
2017-12-02T06:28:09.228Z,102348.91
2017-12-02T06:30:37.608Z,102350.59
2017-12-02T06:33:06.786Z,102351.77
2017-12-02T06:35:35.111Z,102355.39
2017-12-02T06:38:03.553Z,102355.61
2017-12-02T06:40:31.861Z,102361.67
2017-12-02T06:43:00.211Z,102369.29
2017-12-02T06:45:28.557Z,102367.59
2017-12-02T06:47:56.893Z,102372.36
2017-12-02T06:50:26.010Z,102368.09
2017-12-02T06:52:54.337Z,102373.03
2017-12-02T06:55:22.663Z,102370.50
2017-12-02T06:57:51.747Z,102366.49
2017-12-02T07:00:20.979Z,102375.55
2017-12-02T07:02:49.283Z,102374.59
2017-12-02T07:05:17.595Z,102370.74
2017-12-02T07:07:46.727Z,102375.86
2017-12-02T07:10:15.036Z,102375.74
2017-12-02T07:12:43.343Z,102378.65
2017-12-02T07:15:11.722Z,102377.59
2017-12-02T07:17:40.919Z,102379.02
2017-12-02T07:20:09.193Z,102373.77
2017-12-02T07:22:38.708Z,102377.37
2017-12-02T07:25:07.937Z,102379.72
2017-12-02T07:27:36.500Z,102384.55
2017-12-02T07:30:06.343Z,102384.28
2017-12-02T07:32:34.715Z,102383.64
2017-12-02T07:35:03.022Z,102377.95
2017-12-02T07:37:31.377Z,102387.92
2017-12-02T07:39:59.780Z,102388.66
2017-12-02T07:42:28.126Z,102390.86
2017-12-02T07:44:56.709Z,102398.11
2017-12-02T07:47:25.040Z,102393.20
2017-12-02T07:52:26.790Z,102398.53
2017-12-02T07:54:55.110Z,102394.98
2017-12-02T07:57:24.193Z,102402.80
2017-12-02T07:59:52.561Z,102402.91
2017-12-02T08:02:21.884Z,102415.78
2017-12-02T08:04:50.990Z,102411.04
2017-12-02T08:09:53.240Z,102419.47
2017-12-02T08:12:21.608Z,102410.79
2017-12-02T08:14:49.955Z,102418.16
2017-12-02T08:17:19.049Z,102426.14
2017-12-02T08:19:47.516Z,102431.66
2017-12-02T08:22:16.595Z,102428.67
2017-12-02T08:24:45.681Z,102433.64
2017-12-02T08:27:14.643Z,102425.75
2017-12-02T08:29:42.967Z,102430.94
2017-12-02T08:34:44.804Z,102434.96
2017-12-02T08:37:14.016Z,102441.84
2017-12-02T08:39:42.329Z,102440.84
2017-12-02T08:42:11.440Z,102445.03
2017-12-02T08:44:39.755Z,102444.05
2017-12-02T08:47:08.076Z,102441.66
2017-12-02T08:49:37.482Z,102445.91
2017-12-02T08:52:06.568Z,102447.55
2017-12-02T08:54:34.886Z,102453.13
2017-12-02T08:57:03.228Z,102452.23
2017-12-02T08:59:32.305Z,102450.22
2017-12-02T09:02:00.625Z,102444.69
2017-12-02T09:04:29.036Z,102453.88
2017-12-02T09:06:57.355Z,102451.25
2017-12-02T09:09:27.357Z,102451.24
2017-12-02T09:11:55.838Z,102461.28
2017-12-02T09:14:24.137Z,102463.48
2017-12-02T09:16:52.491Z,102463.65
2017-12-02T09:19:20.856Z,102463.27
2017-12-02T09:21:49.176Z,102456.87
2017-12-02T09:24:17.531Z,102464.80
2017-12-02T09:26:45.882Z,102464.37
2017-12-02T09:29:14.235Z,102470.56
2017-12-02T09:31:42.561Z,102467.45
2017-12-02T09:34:11.086Z,102462.94
2017-12-02T09:36:40.160Z,102474.55
2017-12-02T09:39:09.311Z,102475.58
2017-12-02T09:41:37.660Z,102474.91
2017-12-02T09:44:05.983Z,102485.16
2017-12-02T09:46:34.346Z,102487.11
2017-12-02T09:56:43.578Z,102472.73
2017-12-02T09:59:12.698Z,102473.80
2017-12-02T10:01:41.033Z,102486.84
2017-12-02T10:04:09.388Z,102479.32
2017-12-02T10:06:37.728Z,102476.52
2017-12-02T10:09:06.851Z,102477.37
2017-12-02T10:11:35.231Z,102473.81
2017-12-02T10:14:04.720Z,102471.00
2017-12-02T10:16:33.051Z,102459.54
2017-12-02T10:19:01.404Z,102461.70
2017-12-02T10:21:29.780Z,102468.05
2017-12-02T10:23:58.109Z,102454.70
2017-12-02T10:26:27.227Z,102452.50
2017-12-02T10:28:55.634Z,102452.10
2017-12-02T10:31:23.985Z,102455.94
2017-12-02T10:33:52.342Z,102459.97
2017-12-02T10:36:20.816Z,102454.25
2017-12-02T10:38:49.176Z,102452.39
2017-12-02T10:41:22.240Z,102455.53
2017-12-02T10:43:50.624Z,102451.33
2017-12-02T10:46:19.005Z,102443.72
2017-12-02T10:48:47.402Z,102436.63
2017-12-02T10:51:15.792Z,102446.89
2017-12-02T10:53:47.657Z,102440.49
2017-12-02T10:56:16.184Z,102429.73
2017-12-02T10:58:44.553Z,102432.27
2017-12-02T11:01:12.912Z,102426.33
2017-12-02T11:03:41.357Z,102422.48
2017-12-02T12:20:18.380Z,102428.08
2017-12-02T12:22:46.693Z,102422.26
2017-12-02T12:25:15.243Z,102415.08
2017-12-02T12:27:43.784Z,102420.79
2017-12-02T12:30:12.125Z,102425.05
2017-12-02T12:32:40.971Z,102430.22
2017-12-02T12:35:09.270Z,102427.19
2017-12-02T12:37:37.893Z,102436.61
2017-12-02T12:40:22.724Z,102427.30
2017-12-02T12:45:29.547Z,102426.34
2017-12-02T12:47:57.894Z,102430.06
2017-12-02T12:50:26.246Z,102431.33
2017-12-02T12:52:55.199Z,102436.95
2017-12-02T12:55:23.517Z,102436.12
2017-12-02T12:57:51.806Z,102439.89
2017-12-02T13:00:20.641Z,102442.10
2017-12-02T13:02:49.011Z,102442.29
2017-12-02T13:05:18.082Z,102451.86
2017-12-02T13:07:46.697Z,102451.11
2017-12-02T13:10:15.880Z,102447.58
2017-12-02T13:12:44.990Z,102453.08
2017-12-02T13:15:13.608Z,102452.52
2017-12-02T13:17:41.925Z,102445.91
2017-12-02T13:20:10.247Z,102449.98
2017-12-02T13:22:38.917Z,102444.53
2017-12-02T13:25:07.994Z,102448.82
2017-12-02T13:27:37.112Z,102446.38
2017-12-02T13:30:06.517Z,102451.82
2017-12-02T13:32:34.851Z,102448.70
2017-12-02T13:35:03.174Z,102450.81
2017-12-02T13:37:31.959Z,102440.97
2017-12-02T13:40:00.285Z,102436.91
2017-12-02T13:42:28.641Z,102441.98
2017-12-02T13:44:57.350Z,102441.10
2017-12-02T13:47:25.687Z,102438.05
2017-12-02T13:49:54.016Z,102433.02
2017-12-02T13:52:22.850Z,102437.09
2017-12-02T13:54:51.188Z,102424.43
2017-12-02T13:57:19.522Z,102427.83
2017-12-02T13:59:48.251Z,102427.47
2017-12-02T14:02:16.613Z,102427.15
2017-12-02T14:04:44.954Z,102425.59
2017-12-02T14:07:13.644Z,102427.95
2017-12-02T14:09:42.728Z,102433.48
2017-12-02T14:12:11.833Z,102433.19
2017-12-02T14:14:41.422Z,102436.05
2017-12-02T14:17:09.777Z,102444.49
2017-12-02T14:19:38.089Z,102435.95
2017-12-02T14:22:06.751Z,102430.70
2017-12-02T14:24:35.090Z,102433.00
2017-12-02T14:27:03.404Z,102439.03
2017-12-02T14:29:32.498Z,102431.42
2017-12-02T14:32:00.810Z,102432.73
2017-12-02T14:34:29.899Z,102435.03
2017-12-02T14:36:59.266Z,102435.66
2017-12-02T14:39:27.579Z,102441.94
2017-12-02T14:41:56.714Z,102444.73
2017-12-02T14:44:25.547Z,102436.30
2017-12-02T14:46:54.661Z,102440.12
2017-12-02T14:49:23.754Z,102443.66
2017-12-02T14:51:53.449Z,102444.90
2017-12-02T14:54:22.543Z,102441.47
2017-12-02T14:56:50.879Z,102443.27
2017-12-02T14:59:19.483Z,102438.95
2017-12-02T15:01:47.786Z,102440.83
2017-12-02T15:04:16.115Z,102445.48
2017-12-02T15:06:44.746Z,102439.93
2017-12-02T15:09:13.071Z,102437.86
2017-12-02T15:11:41.342Z,102426.05
2017-12-02T15:14:10.223Z,102429.95
2017-12-02T15:16:38.687Z,102432.10
2017-12-02T15:19:07.846Z,102431.96
2017-12-02T15:21:36.780Z,102436.45
2017-12-02T15:24:05.092Z,102428.22
2017-12-02T15:26:33.393Z,102418.32
2017-12-02T15:29:02.017Z,102412.42
2017-12-02T15:31:31.157Z,102413.31
2017-12-02T15:33:59.493Z,102410.51
2017-12-02T15:36:28.969Z,102413.96
2017-12-02T15:38:57.312Z,102410.09
2017-12-02T15:41:25.655Z,102407.18
2017-12-02T15:43:54.566Z,102406.47
2017-12-02T15:46:22.892Z,102408.31
2017-12-02T15:48:51.176Z,102408.22
2017-12-02T15:51:19.997Z,102409.48
2017-12-02T15:53:48.312Z,102403.78
2017-12-02T15:56:21.981Z,102408.97
2017-12-02T15:58:51.077Z,102408.88
2017-12-02T16:01:20.191Z,102411.59
2017-12-02T16:03:48.996Z,102420.28
2017-12-02T16:06:17.324Z,102421.36
2017-12-02T16:08:45.624Z,102418.67
2017-12-02T16:11:15.270Z,102424.18
2017-12-02T16:13:43.593Z,102422.20
2017-12-02T16:16:12.704Z,102420.50
2017-12-02T16:18:42.116Z,102418.99
2017-12-02T16:21:10.438Z,102415.56
2017-12-02T16:23:38.765Z,102414.22
2017-12-02T16:26:08.353Z,102415.49
2017-12-02T16:28:36.685Z,102421.28
2017-12-02T16:31:05.027Z,102420.56
2017-12-02T16:33:34.412Z,102415.91
2017-12-02T16:36:02.731Z,102423.02
2017-12-02T16:38:31.074Z,102422.72
2017-12-02T16:41:00.107Z,102417.63
2017-12-02T16:43:28.422Z,102413.63
2017-12-02T16:45:56.764Z,102418.09
2017-12-02T16:48:25.369Z,102421.59
2017-12-02T16:50:53.711Z,102416.36
2017-12-02T16:53:22.090Z,102419.91
2017-12-02T16:55:50.765Z,102420.10
2017-12-02T16:58:19.154Z,102415.01
2017-12-02T17:00:49.569Z,102406.80
2017-12-02T17:03:18.986Z,102414.50
2017-12-02T17:05:47.290Z,102416.14
2017-12-02T17:08:15.610Z,102409.23
2017-12-02T17:10:44.301Z,102416.74
2017-12-02T17:13:12.669Z,102418.56
2017-12-02T17:15:40.987Z,102415.01
2017-12-02T17:18:09.769Z,102420.34
2017-12-02T17:20:38.116Z,102416.55
2017-12-02T17:23:06.552Z,102420.03
2017-12-02T17:25:36.418Z,102417.94
2017-12-02T17:28:04.732Z,102422.38
2017-12-02T17:30:33.917Z,102424.97
2017-12-02T17:33:02.609Z,102427.65
2017-12-02T17:35:30.937Z,102431.17
2017-12-02T17:37:59.281Z,102432.59
2017-12-02T17:40:27.894Z,102427.11
2017-12-02T17:42:56.204Z,102434.27
2017-12-02T17:45:24.509Z,102433.61
2017-12-02T17:47:53.235Z,102434.94
2017-12-02T17:50:21.560Z,102433.09
2017-12-02T17:52:50.680Z,102432.90
2017-12-02T17:55:19.296Z,102425.03
2017-12-02T17:57:47.615Z,102432.22
2017-12-02T18:00:15.906Z,102440.78
2017-12-02T18:02:44.598Z,102442.75
2017-12-02T18:05:12.899Z,102445.75
2017-12-02T18:07:41.189Z,102439.02
2017-12-02T18:10:10.170Z,102441.38
2017-12-02T18:12:38.517Z,102436.34
2017-12-02T18:15:06.984Z,102440.23
2017-12-02T18:17:35.778Z,102429.31
2017-12-02T18:20:04.302Z,102421.33
2017-12-02T18:22:32.630Z,102424.92
2017-12-02T18:25:02.215Z,102423.50
2017-12-02T18:27:30.566Z,102426.19
2017-12-02T18:29:58.946Z,102420.15
2017-12-02T18:32:27.812Z,102413.90
2017-12-02T18:34:56.152Z,102420.89
2017-12-02T18:37:24.484Z,102425.15
2017-12-02T18:39:53.318Z,102419.23
2017-12-02T18:42:21.635Z,102405.90
2017-12-02T18:44:49.962Z,102410.95
2017-12-02T18:47:18.637Z,102399.26
2017-12-02T18:49:46.936Z,102395.63
2017-12-02T18:52:15.259Z,102394.88
2017-12-02T18:54:43.692Z,102395.55
2017-12-02T18:57:11.999Z,102384.01
2017-12-02T18:59:41.090Z,102393.63
2017-12-02T19:02:10.189Z,102387.42
2017-12-02T19:04:39.347Z,102380.23
2017-12-02T19:07:07.653Z,102375.43
2017-12-02T19:09:36.801Z,102377.48
2017-12-02T19:12:05.080Z,102376.39
2017-12-02T19:14:33.388Z,102378.06
2017-12-02T19:17:01.979Z,102377.52
2017-12-02T19:19:30.279Z,102374.12
2017-12-02T19:21:59.385Z,102385.44
2017-12-02T19:24:28.249Z,102386.95
2017-12-02T19:26:58.219Z,102386.34
2017-12-02T19:29:26.522Z,102382.24
2017-12-02T19:31:54.875Z,102362.95
2017-12-02T19:34:23.217Z,102367.14
2017-12-02T19:36:52.244Z,102368.00
2017-12-02T19:39:20.820Z,102351.78
2017-12-02T19:41:49.130Z,102341.75
2017-12-02T19:44:17.433Z,102346.47
2017-12-02T19:46:45.799Z,102352.26
2017-12-02T19:49:15.459Z,102347.77
2017-12-02T19:51:43.776Z,102346.56
2017-12-02T19:54:12.111Z,102344.67
2017-12-02T19:56:40.432Z,102340.42
2017-12-02T19:59:08.731Z,102347.34
2017-12-02T20:01:37.226Z,102349.83
2017-12-02T20:04:06.312Z,102355.34
2017-12-02T20:06:34.607Z,102352.08
2017-12-02T20:09:02.972Z,102349.31
2017-12-02T20:11:31.282Z,102344.67
2017-12-02T20:13:59.602Z,102344.75
2017-12-02T20:16:27.938Z,102348.09
2017-12-02T20:18:56.283Z,102347.94
2017-12-02T20:21:24.631Z,102348.95
2017-12-02T20:23:53.248Z,102341.72
2017-12-02T20:26:21.582Z,102345.02
2017-12-02T20:28:49.894Z,102336.95
2017-12-02T20:31:18.202Z,102341.49
2017-12-02T20:33:46.511Z,102348.36
2017-12-02T20:36:14.825Z,102347.97
2017-12-02T20:38:43.154Z,102341.63
2017-12-02T20:41:11.517Z,102344.20
2017-12-02T20:43:40.095Z,102347.94
2017-12-02T20:46:08.779Z,102341.80
2017-12-02T20:48:37.143Z,102337.03
2017-12-02T20:51:05.469Z,102339.67
2017-12-02T20:53:33.986Z,102334.98
2017-12-02T20:56:02.316Z,102339.71
2017-12-02T20:58:30.769Z,102342.67
2017-12-02T21:00:59.904Z,102322.77
2017-12-02T21:03:28.553Z,102330.01
2017-12-02T21:05:57.626Z,102325.59
2017-12-02T21:08:26.102Z,102330.86
2017-12-02T21:10:54.454Z,102341.05
2017-12-02T21:13:23.472Z,102331.45
2017-12-02T21:15:51.770Z,102330.66
2017-12-02T21:18:20.855Z,102322.66
2017-12-02T21:20:49.157Z,102328.43
2017-12-02T21:23:17.721Z,102323.84
2017-12-02T21:25:46.116Z,102326.77
2017-12-02T21:28:14.449Z,102320.27
2017-12-02T21:30:43.085Z,102330.16
2017-12-02T21:33:11.356Z,102319.61
2017-12-02T21:35:39.701Z,102321.27
2017-12-02T21:38:08.045Z,102318.53
2017-12-02T21:40:36.333Z,102313.59
2017-12-02T21:43:04.656Z,102307.82
2017-12-02T21:45:33.003Z,102308.32
2017-12-02T21:48:01.316Z,102309.58
2017-12-02T21:50:29.602Z,102313.20
2017-12-02T21:52:58.412Z,102307.06
2017-12-02T21:55:26.719Z,102307.11
2017-12-02T21:57:55.062Z,102295.42
2017-12-02T22:00:24.241Z,102292.42
2017-12-02T22:02:52.740Z,102288.37
2017-12-02T22:05:21.066Z,102280.38
2017-12-02T22:07:49.546Z,102285.66
2017-12-02T22:10:17.876Z,102276.17
2017-12-02T22:12:46.953Z,102271.95
2017-12-02T22:15:15.793Z,102272.64
2017-12-02T22:17:44.110Z,102273.72
2017-12-02T22:20:12.426Z,102256.02
2017-12-02T22:22:41.577Z,102257.25
2017-12-02T22:25:10.145Z,102257.23
2017-12-02T22:27:38.583Z,102252.44
2017-12-02T22:30:06.953Z,102252.64
2017-12-02T22:32:36.027Z,102247.16
2017-12-02T22:35:04.380Z,102254.56
2017-12-02T22:37:33.033Z,102256.05
2017-12-02T22:40:03.052Z,102258.22
2017-12-02T22:42:31.491Z,102253.85
2017-12-02T22:45:01.340Z,102251.61
2017-12-02T22:47:30.411Z,102260.70
2017-12-02T22:49:59.343Z,102253.23
2017-12-02T22:52:27.730Z,102243.11
2017-12-02T22:54:56.059Z,102244.53
2017-12-02T22:57:25.141Z,102253.97
2017-12-02T22:59:53.560Z,102249.41
2017-12-02T23:02:21.937Z,102252.39
2017-12-02T23:04:51.009Z,102248.16
2017-12-02T23:07:20.133Z,102244.96
2017-12-02T23:09:48.468Z,102239.73
2017-12-02T23:12:16.775Z,102236.38
2017-12-02T23:14:45.103Z,102241.58
2017-12-02T23:19:41.673Z,102238.73
2017-12-02T23:22:10.293Z,102233.19
2017-12-02T23:24:39.367Z,102233.95
2017-12-02T23:27:07.678Z,102235.99
2017-12-02T23:29:36.020Z,102240.47
2017-12-02T23:32:04.365Z,102229.22
2017-12-02T23:34:32.685Z,102233.00
2017-12-02T23:37:01.044Z,102224.67
2017-12-02T23:39:29.358Z,102224.02
2017-12-02T23:41:58.398Z,102220.88
2017-12-02T23:44:27.007Z,102223.59
2017-12-02T23:46:55.349Z,102224.14
2017-12-02T23:49:23.661Z,102211.87
2017-12-02T23:51:52.001Z,102200.17
2017-12-02T23:54:20.338Z,102208.82
2017-12-02T23:56:49.418Z,102201.05
2017-12-02T23:59:17.753Z,102196.77
